createdAt,value
2022-10-04T00:03:49.387Z,83.92
2022-10-04T00:08:53.159Z,83.46
2022-10-04T00:13:58.155Z,84.21
2022-10-04T00:19:21.015Z,84.89
2022-10-04T00:24:29.247Z,84.85
2022-10-04T00:29:34.530Z,84.27
2022-10-04T00:34:38.279Z,84.28
2022-10-04T00:39:45.552Z,84.91
2022-10-04T00:44:54.076Z,84.22
2022-10-04T00:50:03.137Z,84.07
2022-10-04T00:55:08.744Z,84.13
2022-10-04T01:00:16.281Z,83.48
2022-10-04T01:05:24.033Z,83.09
2022-10-04T01:10:30.925Z,82.85
2022-10-04T01:15:58.503Z,82.56
2022-10-04T01:21:07.962Z,82.34
2022-10-04T01:26:34.942Z,81.42
2022-10-04T01:31:43.851Z,80.53
2022-10-04T01:36:47.791Z,79.59
2022-10-04T01:42:12.450Z,78.60
2022-10-04T01:47:16.993Z,78.31
2022-10-04T01:52:26.926Z,78.01
2022-10-04T01:57:48.022Z,77.43
2022-10-04T02:02:55.676Z,77.40
2022-10-04T02:08:06.323Z,76.68
2022-10-04T02:13:10.753Z,76.72
2022-10-04T02:18:16.235Z,76.44
2022-10-04T02:23:20.575Z,75.55
2022-10-04T02:28:23.363Z,75.08
2022-10-04T02:33:26.110Z,73.58
2022-10-04T02:38:36.105Z,73.86
2022-10-04T02:43:51.992Z,72.77
2022-10-04T02:49:01.249Z,72.63
2022-10-04T02:54:17.923Z,71.99
2022-10-04T02:59:21.743Z,71.80
2022-10-04T03:04:29.661Z,70.68
2022-10-04T03:09:33.475Z,70.57
2022-10-04T03:14:36.160Z,71.03
2022-10-04T03:19:39.165Z,70.88
2022-10-04T03:24:47.707Z,71.20
2022-10-04T03:29:52.721Z,70.69
2022-10-04T03:34:59.489Z,70.16
2022-10-04T03:40:02.898Z,70.06
2022-10-04T03:45:14.495Z,69.35
2022-10-04T03:50:29.611Z,68.76
2022-10-04T03:55:33.030Z,68.02
2022-10-04T04:00:39.903Z,67.19
2022-10-04T04:05:50.511Z,66.68
2022-10-04T04:10:56.466Z,65.56
2022-10-04T04:16:02.126Z,64.51
2022-10-04T04:21:06.666Z,64.22
2022-10-04T04:26:20.174Z,63.25
2022-10-04T04:31:26.610Z,63.07
2022-10-04T04:36:31.445Z,62.64
2022-10-04T04:41:37.190Z,62.70
2022-10-04T04:46:40.562Z,61.75
2022-10-04T04:51:48.525Z,62.14
2022-10-04T04:56:53.235Z,62.45
2022-10-04T05:01:55.947Z,62.21
2022-10-04T05:07:04.826Z,61.85
2022-10-04T05:12:27.949Z,61.17
2022-10-04T05:17:34.454Z,61.36
2022-10-04T05:22:37.991Z,60.83
2022-10-04T05:27:45.466Z,61.42
2022-10-04T05:32:54.300Z,60.85
2022-10-04T05:38:11.104Z,60.54
2022-10-04T05:43:30.116Z,59.18
2022-10-04T05:48:33.810Z,59.09
2022-10-04T05:53:36.585Z,58.56
2022-10-04T05:59:00.462Z,57.54
2022-10-04T06:04:33.384Z,56.26
2022-10-04T06:09:47.895Z,55.82
2022-10-04T06:15:06.900Z,54.56
2022-10-04T06:20:24.399Z,53.19
2022-10-04T06:25:40.781Z,52.88
2022-10-04T06:31:21.912Z,52.68
2022-10-04T06:36:55.457Z,52.53
2022-10-04T06:42:14.706Z,51.86
2022-10-04T06:47:47.996Z,51.14
2022-10-04T06:53:15.700Z,50.79
2022-10-04T06:58:48.022Z,50.58
2022-10-04T07:04:41.092Z,50.21
2022-10-04T07:10:06.005Z,50.38
2022-10-04T07:15:22.293Z,48.88
2022-10-04T07:20:32.637Z,48.73
2022-10-04T07:25:42.987Z,47.88
2022-10-04T07:30:52.916Z,47.55
2022-10-04T07:36:07.110Z,47.00
2022-10-04T07:41:49.441Z,47.42
2022-10-04T07:46:58.729Z,47.34
2022-10-04T07:52:16.743Z,45.89
2022-10-04T07:57:54.233Z,45.93
2022-10-04T08:03:15.185Z,45.59
2022-10-04T08:08:48.397Z,45.45
2022-10-04T08:14:14.018Z,45.39
2022-10-04T08:19:29.525Z,45.29
2022-10-04T08:25:02.680Z,45.28
2022-10-04T08:30:13.509Z,45.19
2022-10-04T08:35:40.709Z,45.43
2022-10-04T08:41:06.758Z,45.81
2022-10-04T08:46:34.716Z,45.58
2022-10-04T08:51:59.217Z,45.45
2022-10-04T08:57:26.977Z,44.28
2022-10-04T09:02:54.476Z,44.81
2022-10-04T09:08:20.747Z,44.26
2022-10-04T09:13:54.962Z,43.52
2022-10-04T09:19:22.420Z,43.68
2022-10-04T09:24:37.061Z,43.25
2022-10-04T09:30:00.860Z,43.26
2022-10-04T09:35:29.592Z,43.62
2022-10-04T09:40:53.767Z,43.59
2022-10-04T09:46:29.717Z,42.84
2022-10-04T09:51:55.020Z,42.94
2022-10-04T09:56:57.503Z,43.74
2022-10-04T10:02:19.195Z,44.43
2022-10-04T10:07:32.118Z,43.93
2022-10-04T10:13:15.896Z,44.33
2022-10-04T10:18:47.844Z,43.86
2022-10-04T10:24:04.943Z,43.69
2022-10-04T10:29:20.334Z,43.94
2022-10-04T10:34:28.894Z,44.25
2022-10-04T10:40:00.614Z,44.67
2022-10-04T10:45:24.623Z,45.29
2022-10-04T10:51:01.686Z,45.48
2022-10-04T10:56:35.046Z,46.21
2022-10-04T11:01:47.961Z,46.34
2022-10-04T11:07:13.594Z,46.47
2022-10-04T11:12:59.907Z,46.59
2022-10-04T11:18:05.822Z,46.44
2022-10-04T11:23:14.959Z,46.54
2022-10-04T11:28:24.697Z,46.73
2022-10-04T11:34:16.645Z,46.66
2022-10-04T11:39:24.886Z,47.13
2022-10-04T11:44:43.967Z,47.79
2022-10-04T11:49:57.002Z,47.95
2022-10-04T11:55:20.871Z,47.94
2022-10-04T12:00:26.236Z,48.30
2022-10-04T12:05:49.930Z,48.33
2022-10-04T12:11:19.159Z,48.79
2022-10-04T12:16:51.251Z,49.29
2022-10-04T12:22:30.581Z,49.20
2022-10-04T12:27:39.494Z,49.52
2022-10-04T12:33:03.520Z,49.82
2022-10-04T12:38:07.433Z,50.35
2022-10-04T12:43:22.256Z,51.00
2022-10-04T12:48:36.886Z,51.30
2022-10-04T12:54:02.078Z,51.15
2022-10-04T12:59:04.870Z,51.25
2022-10-04T13:04:30.951Z,51.06
2022-10-04T13:09:48.588Z,50.96
2022-10-04T13:15:23.768Z,51.20
2022-10-04T13:20:58.928Z,51.47
2022-10-04T13:26:03.935Z,51.58
2022-10-04T13:31:10.073Z,51.56
2022-10-04T13:36:35.889Z,51.50
2022-10-04T13:42:11.433Z,51.54
2022-10-04T13:47:47.648Z,51.39
2022-10-04T13:53:28.281Z,51.88
2022-10-04T13:58:46.210Z,52.49
2022-10-04T14:04:07.292Z,52.84
2022-10-04T14:09:13.571Z,53.20
2022-10-04T14:14:43.350Z,53.78
2022-10-04T14:20:01.226Z,54.12
2022-10-04T14:25:43.811Z,53.93
2022-10-04T14:31:05.258Z,53.82
2022-10-04T14:36:23.738Z,54.17
2022-10-04T14:42:05.722Z,54.10
2022-10-04T14:47:38.236Z,54.27
2022-10-04T14:53:18.172Z,54.58
2022-10-04T14:58:36.399Z,54.36
2022-10-04T15:03:47.649Z,54.27
2022-10-04T15:08:59.829Z,54.26
2022-10-04T15:14:05.654Z,54.20
2022-10-04T15:19:12.997Z,54.53
2022-10-04T15:24:18.723Z,54.96
2022-10-04T15:29:58.348Z,54.97
2022-10-04T15:35:29.858Z,54.71
2022-10-04T15:40:38.743Z,54.89
2022-10-04T15:46:16.819Z,55.31
2022-10-04T15:52:03.635Z,55.70
2022-10-04T15:57:31.780Z,55.79
2022-10-04T16:02:37.249Z,55.28
2022-10-04T16:07:42.696Z,55.18
2022-10-04T16:12:51.436Z,54.39
2022-10-04T16:18:08.939Z,54.18
2022-10-04T16:23:32.024Z,54.18
2022-10-04T16:28:38.294Z,54.33
2022-10-04T16:33:58.050Z,54.25
2022-10-04T16:39:20.270Z,55.18
2022-10-04T16:44:37.289Z,55.07
2022-10-04T16:49:57.466Z,55.29
2022-10-04T16:55:20.460Z,55.82
2022-10-04T17:00:34.056Z,56.15
2022-10-04T17:05:47.680Z,56.60
2022-10-04T17:10:50.306Z,56.44
2022-10-04T17:16:22.607Z,56.57
2022-10-04T17:21:49.723Z,56.85
2022-10-04T17:26:56.251Z,56.75
2022-10-04T17:32:25.072Z,57.42
2022-10-04T17:37:53.901Z,57.14
2022-10-04T17:43:08.132Z,57.37
2022-10-04T17:49:04.434Z,57.19
2022-10-04T17:55:03.659Z,57.54
2022-10-04T18:00:09.601Z,55.80
2022-10-04T18:05:26.263Z,54.73
2022-10-04T18:10:35.450Z,53.73
2022-10-04T18:16:15.461Z,53.89
2022-10-04T18:21:31.755Z,53.73
2022-10-04T18:26:34.791Z,53.60
2022-10-04T18:31:39.689Z,53.93
2022-10-04T18:37:06.121Z,54.20
2022-10-04T18:42:28.283Z,54.81
2022-10-04T18:47:40.152Z,54.90
2022-10-04T18:53:06.018Z,54.94
2022-10-04T18:58:37.637Z,54.91
2022-10-04T19:03:46.009Z,55.01
2022-10-04T19:09:05.877Z,54.71
2022-10-04T19:14:32.929Z,54.86
2022-10-04T19:19:38.843Z,54.60
2022-10-04T19:25:09.369Z,54.50
2022-10-04T19:30:23.369Z,54.76
2022-10-04T19:36:01.283Z,55.25
2022-10-04T19:41:20.088Z,55.64
2022-10-04T19:46:35.426Z,55.26
2022-10-04T19:51:55.509Z,55.48
2022-10-04T19:56:59.237Z,55.88
2022-10-04T20:02:02.178Z,56.77
2022-10-04T20:07:27.025Z,57.38
2022-10-04T20:12:35.842Z,57.31
2022-10-04T20:17:40.468Z,57.34
2022-10-04T20:23:03.289Z,57.79
2022-10-04T20:28:05.971Z,57.67
2022-10-04T20:33:08.735Z,57.75
2022-10-04T20:38:31.628Z,57.42
2022-10-04T20:43:53.725Z,57.16
2022-10-04T20:48:56.518Z,57.64
2022-10-04T20:54:03.887Z,57.84
2022-10-04T20:59:06.508Z,58.26
2022-10-04T21:04:41.757Z,58.73
2022-10-04T21:09:44.731Z,59.15
2022-10-04T21:15:22.325Z,59.67
2022-10-04T21:20:46.723Z,60.51
2022-10-04T21:25:50.072Z,60.60
2022-10-04T21:30:52.758Z,61.44
2022-10-04T21:35:55.545Z,62.13
2022-10-04T21:40:58.605Z,62.23
2022-10-04T21:46:01.887Z,62.71
2022-10-04T21:51:04.817Z,63.30
2022-10-04T21:56:08.145Z,64.40
2022-10-04T22:01:10.931Z,65.54
2022-10-04T22:06:13.818Z,65.49
2022-10-04T22:11:16.560Z,66.45
2022-10-04T22:16:19.306Z,66.82
2022-10-04T22:21:22.189Z,67.47
2022-10-04T22:26:26.879Z,67.94
2022-10-04T22:31:30.211Z,68.16
2022-10-04T22:36:39.647Z,67.95
2022-10-04T22:41:48.019Z,68.68
2022-10-04T22:46:55.804Z,68.43
2022-10-04T22:52:00.047Z,68.29
2022-10-04T22:57:02.756Z,68.69
2022-10-04T23:02:27.074Z,68.33
2022-10-04T23:07:30.687Z,68.06
2022-10-04T23:12:35.640Z,67.70
2022-10-04T23:17:40.259Z,67.47
2022-10-04T23:22:47.563Z,67.44
2022-10-04T23:27:50.468Z,67.13
2022-10-04T23:32:57.046Z,66.74
2022-10-04T23:38:02.058Z,66.53
2022-10-04T23:43:05.782Z,66.33
2022-10-04T23:48:26.227Z,65.92
2022-10-04T23:53:31.659Z,66.09
2022-10-04T23:58:35.052Z,65.86
